sensor_id;sensor_type;location;lat;lon;timestamp;P1;durP1;ratioP1;P2;durP2;ratioP2
62925;SDS011;55732;52.248;-0.844;2023-03-09T00:01:35;4.70;;;3.80;;
62925;SDS011;55732;52.248;-0.844;2023-03-09T00:04:01;7.50;;;6.20;;
62925;SDS011;55732;52.248;-0.844;2023-03-09T00:06:27;6.30;;;5.30;;
62925;SDS011;55732;52.248;-0.844;2023-03-09T00:08:54;8.30;;;6.20;;
62925;SDS011;55732;52.248;-0.844;2023-03-09T00:11:19;9.50;;;7.20;;
62925;SDS011;55732;52.248;-0.844;2023-03-09T00:13:46;10.50;;;7.00;;
62925;SDS011;55732;52.248;-0.844;2023-03-09T00:16:23;11.80;;;6.70;;
62925;SDS011;55732;52.248;-0.844;2023-03-09T00:18:51;9.70;;;7.70;;
62925;SDS011;55732;52.248;-0.844;2023-03-09T00:21:18;9.60;;;7.20;;
62925;SDS011;55732;52.248;-0.844;2023-03-09T00:24:16;8.10;;;6.40;;
62925;SDS011;55732;52.248;-0.844;2023-03-09T00:26:51;12.60;;;8.70;;
62925;SDS011;55732;52.248;-0.844;2023-03-09T00:29:18;8.90;;;6.50;;
62925;SDS011;55732;52.248;-0.844;2023-03-09T00:31:44;13.30;;;8.30;;
62925;SDS011;55732;52.248;-0.844;2023-03-09T00:34:10;12.20;;;8.30;;
62925;SDS011;55732;52.248;-0.844;2023-03-09T00:36:36;13.30;;;8.50;;
62925;SDS011;55732;52.248;-0.844;2023-03-09T00:39:02;12.30;;;8.30;;
62925;SDS011;55732;52.248;-0.844;2023-03-09T00:41:28;9.50;;;6.80;;
62925;SDS011;55732;52.248;-0.844;2023-03-09T00:43:59;12.50;;;7.20;;
62925;SDS011;55732;52.248;-0.844;2023-03-09T00:46:25;12.30;;;8.80;;
62925;SDS011;55732;52.248;-0.844;2023-03-09T00:48:52;9.10;;;6.60;;
62925;SDS011;55732;52.248;-0.844;2023-03-09T00:51:17;14.40;;;8.70;;
62925;SDS011;55732;52.248;-0.844;2023-03-09T00:53:43;10.00;;;7.00;;
62925;SDS011;55732;52.248;-0.844;2023-03-09T00:56:12;9.00;;;6.70;;
62925;SDS011;55732;52.248;-0.844;2023-03-09T00:58:41;11.50;;;7.40;;
62925;SDS011;55732;52.248;-0.844;2023-03-09T01:01:07;11.40;;;8.30;;
62925;SDS011;55732;52.248;-0.844;2023-03-09T01:03:34;10.30;;;7.70;;
62925;SDS011;55732;52.248;-0.844;2023-03-09T01:06:00;11.80;;;8.00;;
62925;SDS011;55732;52.248;-0.844;2023-03-09T01:08:25;11.40;;;8.00;;
62925;SDS011;55732;52.248;-0.844;2023-03-09T01:10:51;8.80;;;6.80;;
62925;SDS011;55732;52.248;-0.844;2023-03-09T01:13:16;11.00;;;6.80;;
62925;SDS011;55732;52.248;-0.844;2023-03-09T01:15:42;12.00;;;8.20;;
62925;SDS011;55732;52.248;-0.844;2023-03-09T01:18:07;8.80;;;6.60;;
62925;SDS011;55732;52.248;-0.844;2023-03-09T01:20:33;8.50;;;6.20;;
62925;SDS011;55732;52.248;-0.844;2023-03-09T01:22:58;10.60;;;8.10;;
62925;SDS011;55732;52.248;-0.844;2023-03-09T01:25:24;13.50;;;8.00;;
62925;SDS011;55732;52.248;-0.844;2023-03-09T01:27:50;8.10;;;6.60;;
62925;SDS011;55732;52.248;-0.844;2023-03-09T01:30:16;9.40;;;7.10;;
62925;SDS011;55732;52.248;-0.844;2023-03-09T01:32:42;12.30;;;8.30;;
62925;SDS011;55732;52.248;-0.844;2023-03-09T01:35:07;11.80;;;8.20;;
62925;SDS011;55732;52.248;-0.844;2023-03-09T01:37:33;9.50;;;6.60;;
62925;SDS011;55732;52.248;-0.844;2023-03-09T01:39:59;10.00;;;7.40;;
62925;SDS011;55732;52.248;-0.844;2023-03-09T01:42:24;10.80;;;8.30;;
62925;SDS011;55732;52.248;-0.844;2023-03-09T01:47:44;13.20;;;8.30;;
62925;SDS011;55732;52.248;-0.844;2023-03-09T01:50:10;8.30;;;6.90;;
62925;SDS011;55732;52.248;-0.844;2023-03-09T01:52:37;8.50;;;7.10;;
62925;SDS011;55732;52.248;-0.844;2023-03-09T01:55:05;12.60;;;8.60;;
62925;SDS011;55732;52.248;-0.844;2023-03-09T01:57:42;9.20;;;6.90;;
62925;SDS011;55732;52.248;-0.844;2023-03-09T02:00:20;11.40;;;8.60;;
62925;SDS011;55732;52.248;-0.844;2023-03-09T02:02:59;6.90;;;6.00;;
62925;SDS011;55732;52.248;-0.844;2023-03-09T02:05:33;8.10;;;6.20;;
62925;SDS011;55732;52.248;-0.844;2023-03-09T02:08:04;7.80;;;6.10;;
62925;SDS011;55732;52.248;-0.844;2023-03-09T02:10:34;9.80;;;6.60;;
62925;SDS011;55732;52.248;-0.844;2023-03-09T02:13:08;5.80;;;4.10;;
62925;SDS011;55732;52.248;-0.844;2023-03-09T02:15:34;7.00;;;4.40;;
62925;SDS011;55732;52.248;-0.844;2023-03-09T02:18:00;4.70;;;4.20;;
62925;SDS011;55732;52.248;-0.844;2023-03-09T02:23:17;8.10;;;5.30;;
62925;SDS011;55732;52.248;-0.844;2023-03-09T02:25:56;5.80;;;5.00;;
62925;SDS011;55732;52.248;-0.844;2023-03-09T02:28:37;8.50;;;5.40;;
62925;SDS011;55732;52.248;-0.844;2023-03-09T02:31:03;7.80;;;5.70;;
62925;SDS011;55732;52.248;-0.844;2023-03-09T02:33:30;6.70;;;5.50;;
62925;SDS011;55732;52.248;-0.844;2023-03-09T02:35:56;8.70;;;5.50;;
62925;SDS011;55732;52.248;-0.844;2023-03-09T02:38:24;7.20;;;5.80;;
62925;SDS011;55732;52.248;-0.844;2023-03-09T02:40:50;10.40;;;7.10;;
62925;SDS011;55732;52.248;-0.844;2023-03-09T02:43:18;7.90;;;6.60;;
62925;SDS011;55732;52.248;-0.844;2023-03-09T02:45:47;7.20;;;5.90;;
62925;SDS011;55732;52.248;-0.844;2023-03-09T02:48:14;9.40;;;6.60;;
62925;SDS011;55732;52.248;-0.844;2023-03-09T02:50:40;8.70;;;5.40;;
62925;SDS011;55732;52.248;-0.844;2023-03-09T02:53:06;6.80;;;6.00;;
62925;SDS011;55732;52.248;-0.844;2023-03-09T02:55:31;7.90;;;6.30;;
62925;SDS011;55732;52.248;-0.844;2023-03-09T02:57:56;7.40;;;5.70;;
62925;SDS011;55732;52.248;-0.844;2023-03-09T03:00:22;4.20;;;3.80;;
62925;SDS011;55732;52.248;-0.844;2023-03-09T03:02:48;8.50;;;6.10;;
62925;SDS011;55732;52.248;-0.844;2023-03-09T03:05:14;10.70;;;7.10;;
62925;SDS011;55732;52.248;-0.844;2023-03-09T03:07:40;8.90;;;6.80;;
62925;SDS011;55732;52.248;-0.844;2023-03-09T03:10:05;9.60;;;6.10;;
62925;SDS011;55732;52.248;-0.844;2023-03-09T03:12:31;12.90;;;6.40;;
62925;SDS011;55732;52.248;-0.844;2023-03-09T03:14:57;11.20;;;6.40;;
62925;SDS011;55732;52.248;-0.844;2023-03-09T03:17:22;10.40;;;7.70;;
62925;SDS011;55732;52.248;-0.844;2023-03-09T03:19:48;11.20;;;7.50;;
62925;SDS011;55732;52.248;-0.844;2023-03-09T03:22:13;10.10;;;6.70;;
62925;SDS011;55732;52.248;-0.844;2023-03-09T03:24:39;7.30;;;5.30;;
62925;SDS011;55732;52.248;-0.844;2023-03-09T03:27:05;8.20;;;5.50;;
62925;SDS011;55732;52.248;-0.844;2023-03-09T03:29:31;7.40;;;5.50;;
62925;SDS011;55732;52.248;-0.844;2023-03-09T03:31:57;8.70;;;5.70;;
62925;SDS011;55732;52.248;-0.844;2023-03-09T03:34:23;10.00;;;5.60;;
62925;SDS011;55732;52.248;-0.844;2023-03-09T03:36:49;9.50;;;5.20;;
62925;SDS011;55732;52.248;-0.844;2023-03-09T03:39:14;7.60;;;5.20;;
62925;SDS011;55732;52.248;-0.844;2023-03-09T03:41:40;12.30;;;5.70;;
62925;SDS011;55732;52.248;-0.844;2023-03-09T03:44:05;7.00;;;5.20;;
62925;SDS011;55732;52.248;-0.844;2023-03-09T03:46:30;5.20;;;4.30;;
62925;SDS011;55732;52.248;-0.844;2023-03-09T03:48:56;5.50;;;4.00;;
62925;SDS011;55732;52.248;-0.844;2023-03-09T03:51:22;6.20;;;4.40;;
62925;SDS011;55732;52.248;-0.844;2023-03-09T03:53:48;7.20;;;4.10;;
62925;SDS011;55732;52.248;-0.844;2023-03-09T03:56:14;5.80;;;4.20;;
62925;SDS011;55732;52.248;-0.844;2023-03-09T03:58:39;12.00;;;5.40;;
62925;SDS011;55732;52.248;-0.844;2023-03-09T04:01:05;8.20;;;4.90;;
62925;SDS011;55732;52.248;-0.844;2023-03-09T04:03:31;8.70;;;4.60;;
62925;SDS011;55732;52.248;-0.844;2023-03-09T04:05:57;7.00;;;5.10;;
62925;SDS011;55732;52.248;-0.844;2023-03-09T04:08:23;5.90;;;4.70;;
62925;SDS011;55732;52.248;-0.844;2023-03-09T04:10:48;5.30;;;3.80;;
62925;SDS011;55732;52.248;-0.844;2023-03-09T04:13:14;6.60;;;4.60;;
62925;SDS011;55732;52.248;-0.844;2023-03-09T04:15:40;8.80;;;5.10;;
62925;SDS011;55732;52.248;-0.844;2023-03-09T04:18:05;10.40;;;4.20;;
62925;SDS011;55732;52.248;-0.844;2023-03-09T04:20:32;4.90;;;3.80;;
62925;SDS011;55732;52.248;-0.844;2023-03-09T04:22:59;10.60;;;4.00;;
62925;SDS011;55732;52.248;-0.844;2023-03-09T04:25:25;6.90;;;4.60;;
62925;SDS011;55732;52.248;-0.844;2023-03-09T04:27:51;5.30;;;4.20;;
62925;SDS011;55732;52.248;-0.844;2023-03-09T04:30:16;7.50;;;4.10;;
62925;SDS011;55732;52.248;-0.844;2023-03-09T04:32:46;5.80;;;4.90;;
62925;SDS011;55732;52.248;-0.844;2023-03-09T04:35:13;6.80;;;4.80;;
62925;SDS011;55732;52.248;-0.844;2023-03-09T04:37:39;7.00;;;4.20;;
62925;SDS011;55732;52.248;-0.844;2023-03-09T04:40:04;5.10;;;3.70;;
62925;SDS011;55732;52.248;-0.844;2023-03-09T04:42:30;9.80;;;4.40;;
62925;SDS011;55732;52.248;-0.844;2023-03-09T04:44:56;6.60;;;5.10;;
62925;SDS011;55732;52.248;-0.844;2023-03-09T04:47:22;5.90;;;4.40;;
62925;SDS011;55732;52.248;-0.844;2023-03-09T04:49:48;5.40;;;4.20;;
62925;SDS011;55732;52.248;-0.844;2023-03-09T04:52:13;7.50;;;4.50;;
62925;SDS011;55732;52.248;-0.844;2023-03-09T04:54:39;5.70;;;3.80;;
62925;SDS011;55732;52.248;-0.844;2023-03-09T04:57:04;7.00;;;4.80;;
62925;SDS011;55732;52.248;-0.844;2023-03-09T04:59:30;5.50;;;3.80;;
62925;SDS011;55732;52.248;-0.844;2023-03-09T05:01:55;7.60;;;5.20;;
62925;SDS011;55732;52.248;-0.844;2023-03-09T05:04:21;7.40;;;4.00;;
62925;SDS011;55732;52.248;-0.844;2023-03-09T05:06:46;7.30;;;4.30;;
62925;SDS011;55732;52.248;-0.844;2023-03-09T05:09:12;8.10;;;5.90;;
62925;SDS011;55732;52.248;-0.844;2023-03-09T05:11:38;4.70;;;4.10;;
62925;SDS011;55732;52.248;-0.844;2023-03-09T05:14:03;7.60;;;4.60;;
62925;SDS011;55732;52.248;-0.844;2023-03-09T05:16:29;10.80;;;6.30;;
62925;SDS011;55732;52.248;-0.844;2023-03-09T05:18:54;11.70;;;5.40;;
62925;SDS011;55732;52.248;-0.844;2023-03-09T05:21:20;8.40;;;5.90;;
62925;SDS011;55732;52.248;-0.844;2023-03-09T05:23:46;10.10;;;5.80;;
62925;SDS011;55732;52.248;-0.844;2023-03-09T05:26:11;6.50;;;5.30;;
62925;SDS011;55732;52.248;-0.844;2023-03-09T05:28:37;7.00;;;5.90;;
62925;SDS011;55732;52.248;-0.844;2023-03-09T05:31:09;6.30;;;5.30;;
62925;SDS011;55732;52.248;-0.844;2023-03-09T05:33:38;11.30;;;5.50;;
62925;SDS011;55732;52.248;-0.844;2023-03-09T05:36:25;5.60;;;4.60;;
62925;SDS011;55732;52.248;-0.844;2023-03-09T05:38:51;9.40;;;5.90;;
62925;SDS011;55732;52.248;-0.844;2023-03-09T05:41:17;13.70;;;4.80;;
62925;SDS011;55732;52.248;-0.844;2023-03-09T05:43:44;7.90;;;5.30;;
62925;SDS011;55732;52.248;-0.844;2023-03-09T05:46:11;6.40;;;4.90;;
62925;SDS011;55732;52.248;-0.844;2023-03-09T05:48:37;10.60;;;4.70;;
62925;SDS011;55732;52.248;-0.844;2023-03-09T05:51:03;5.90;;;4.70;;
62925;SDS011;55732;52.248;-0.844;2023-03-09T05:53:30;6.50;;;4.70;;
62925;SDS011;55732;52.248;-0.844;2023-03-09T05:55:59;6.00;;;4.50;;
62925;SDS011;55732;52.248;-0.844;2023-03-09T05:58:25;6.00;;;5.00;;
62925;SDS011;55732;52.248;-0.844;2023-03-09T06:00:50;13.40;;;4.90;;
62925;SDS011;55732;52.248;-0.844;2023-03-09T06:03:18;10.50;;;4.90;;
62925;SDS011;55732;52.248;-0.844;2023-03-09T06:05:44;8.50;;;4.90;;
62925;SDS011;55732;52.248;-0.844;2023-03-09T06:08:10;7.20;;;4.90;;
62925;SDS011;55732;52.248;-0.844;2023-03-09T06:10:36;7.80;;;5.00;;
62925;SDS011;55732;52.248;-0.844;2023-03-09T06:13:01;5.50;;;4.30;;
62925;SDS011;55732;52.248;-0.844;2023-03-09T06:15:27;6.90;;;4.80;;
62925;SDS011;55732;52.248;-0.844;2023-03-09T06:17:52;11.10;;;5.20;;
62925;SDS011;55732;52.248;-0.844;2023-03-09T06:20:18;7.00;;;4.60;;
62925;SDS011;55732;52.248;-0.844;2023-03-09T06:22:44;8.80;;;4.90;;
62925;SDS011;55732;52.248;-0.844;2023-03-09T06:25:10;6.40;;;4.80;;
62925;SDS011;55732;52.248;-0.844;2023-03-09T06:27:35;8.40;;;4.00;;
62925;SDS011;55732;52.248;-0.844;2023-03-09T06:30:01;9.30;;;5.00;;
62925;SDS011;55732;52.248;-0.844;2023-03-09T06:32:27;9.90;;;5.20;;
62925;SDS011;55732;52.248;-0.844;2023-03-09T06:34:52;6.60;;;4.50;;
62925;SDS011;55732;52.248;-0.844;2023-03-09T06:37:17;11.30;;;4.70;;
62925;SDS011;55732;52.248;-0.844;2023-03-09T06:39:44;8.90;;;4.90;;
62925;SDS011;55732;52.248;-0.844;2023-03-09T06:42:10;7.80;;;4.20;;
62925;SDS011;55732;52.248;-0.844;2023-03-09T06:44:35;6.20;;;4.80;;
62925;SDS011;55732;52.248;-0.844;2023-03-09T06:47:01;8.90;;;5.00;;
62925;SDS011;55732;52.248;-0.844;2023-03-09T06:49:26;13.30;;;5.40;;
62925;SDS011;55732;52.248;-0.844;2023-03-09T06:51:52;10.60;;;5.90;;
62925;SDS011;55732;52.248;-0.844;2023-03-09T06:54:17;7.60;;;4.60;;
62925;SDS011;55732;52.248;-0.844;2023-03-09T06:56:43;6.80;;;5.20;;
62925;SDS011;55732;52.248;-0.844;2023-03-09T06:59:08;7.90;;;4.70;;
62925;SDS011;55732;52.248;-0.844;2023-03-09T07:01:34;11.80;;;6.90;;
62925;SDS011;55732;52.248;-0.844;2023-03-09T07:03:59;7.40;;;5.20;;
62925;SDS011;55732;52.248;-0.844;2023-03-09T07:06:25;5.00;;;4.10;;
62925;SDS011;55732;52.248;-0.844;2023-03-09T07:08:50;5.70;;;4.20;;
62925;SDS011;55732;52.248;-0.844;2023-03-09T07:11:16;10.20;;;5.10;;
62925;SDS011;55732;52.248;-0.844;2023-03-09T07:13:41;10.90;;;5.50;;
62925;SDS011;55732;52.248;-0.844;2023-03-09T07:16:07;7.80;;;5.40;;
62925;SDS011;55732;52.248;-0.844;2023-03-09T07:18:32;8.20;;;4.60;;
62925;SDS011;55732;52.248;-0.844;2023-03-09T07:20:59;9.10;;;5.50;;
62925;SDS011;55732;52.248;-0.844;2023-03-09T07:23:26;8.00;;;5.30;;
62925;SDS011;55732;52.248;-0.844;2023-03-09T07:25:52;7.60;;;4.90;;
62925;SDS011;55732;52.248;-0.844;2023-03-09T07:28:18;13.90;;;6.70;;
62925;SDS011;55732;52.248;-0.844;2023-03-09T07:30:43;8.40;;;6.40;;
62925;SDS011;55732;52.248;-0.844;2023-03-09T07:33:08;10.80;;;6.80;;
62925;SDS011;55732;52.248;-0.844;2023-03-09T07:35:37;9.40;;;6.10;;
62925;SDS011;55732;52.248;-0.844;2023-03-09T07:38:03;9.80;;;6.20;;
62925;SDS011;55732;52.248;-0.844;2023-03-09T07:40:28;8.30;;;5.30;;
62925;SDS011;55732;52.248;-0.844;2023-03-09T07:42:54;13.40;;;6.50;;
62925;SDS011;55732;52.248;-0.844;2023-03-09T07:45:19;10.60;;;5.90;;
62925;SDS011;55732;52.248;-0.844;2023-03-09T07:47:47;8.00;;;5.10;;
62925;SDS011;55732;52.248;-0.844;2023-03-09T07:50:12;9.20;;;4.90;;
62925;SDS011;55732;52.248;-0.844;2023-03-09T07:52:38;11.50;;;6.20;;
62925;SDS011;55732;52.248;-0.844;2023-03-09T07:55:04;10.30;;;5.70;;
62925;SDS011;55732;52.248;-0.844;2023-03-09T07:57:33;9.90;;;5.50;;
62925;SDS011;55732;52.248;-0.844;2023-03-09T07:59:59;10.70;;;6.00;;
62925;SDS011;55732;52.248;-0.844;2023-03-09T08:02:25;10.10;;;6.20;;
62925;SDS011;55732;52.248;-0.844;2023-03-09T08:04:51;9.60;;;6.00;;
62925;SDS011;55732;52.248;-0.844;2023-03-09T08:07:17;7.40;;;4.80;;
62925;SDS011;55732;52.248;-0.844;2023-03-09T08:09:43;10.20;;;5.20;;
62925;SDS011;55732;52.248;-0.844;2023-03-09T08:12:08;9.00;;;5.70;;
62925;SDS011;55732;52.248;-0.844;2023-03-09T08:14:35;10.90;;;6.00;;
62925;SDS011;55732;52.248;-0.844;2023-03-09T08:17:00;10.60;;;6.10;;
62925;SDS011;55732;52.248;-0.844;2023-03-09T08:19:27;6.20;;;4.60;;
62925;SDS011;55732;52.248;-0.844;2023-03-09T08:21:53;7.50;;;5.00;;
62925;SDS011;55732;52.248;-0.844;2023-03-09T08:24:19;8.60;;;5.50;;
62925;SDS011;55732;52.248;-0.844;2023-03-09T08:26:45;8.70;;;5.60;;
62925;SDS011;55732;52.248;-0.844;2023-03-09T08:29:10;8.00;;;5.30;;
62925;SDS011;55732;52.248;-0.844;2023-03-09T08:31:36;8.50;;;5.50;;
62925;SDS011;55732;52.248;-0.844;2023-03-09T08:34:02;9.00;;;5.20;;
62925;SDS011;55732;52.248;-0.844;2023-03-09T08:36:28;10.20;;;5.00;;
62925;SDS011;55732;52.248;-0.844;2023-03-09T08:38:54;8.20;;;5.00;;
62925;SDS011;55732;52.248;-0.844;2023-03-09T08:41:20;7.20;;;4.70;;
62925;SDS011;55732;52.248;-0.844;2023-03-09T08:43:46;9.50;;;5.30;;
62925;SDS011;55732;52.248;-0.844;2023-03-09T08:46:12;6.80;;;4.40;;
62925;SDS011;55732;52.248;-0.844;2023-03-09T08:48:38;5.90;;;3.80;;
62925;SDS011;55732;52.248;-0.844;2023-03-09T08:51:05;7.20;;;4.80;;
62925;SDS011;55732;52.248;-0.844;2023-03-09T08:53:35;7.20;;;5.10;;
62925;SDS011;55732;52.248;-0.844;2023-03-09T08:56:05;5.60;;;4.30;;
62925;SDS011;55732;52.248;-0.844;2023-03-09T08:58:33;7.90;;;5.20;;
62925;SDS011;55732;52.248;-0.844;2023-03-09T09:01:03;7.70;;;4.20;;
62925;SDS011;55732;52.248;-0.844;2023-03-09T09:03:30;8.70;;;4.90;;
62925;SDS011;55732;52.248;-0.844;2023-03-09T09:06:02;7.90;;;4.90;;
62925;SDS011;55732;52.248;-0.844;2023-03-09T09:08:29;5.10;;;4.00;;
62925;SDS011;55732;52.248;-0.844;2023-03-09T09:10:54;7.30;;;5.10;;
62925;SDS011;55732;52.248;-0.844;2023-03-09T09:13:22;6.60;;;4.20;;
62925;SDS011;55732;52.248;-0.844;2023-03-09T09:15:57;6.50;;;4.60;;
62925;SDS011;55732;52.248;-0.844;2023-03-09T09:18:24;6.70;;;4.30;;
62925;SDS011;55732;52.248;-0.844;2023-03-09T09:20:50;4.40;;;3.30;;
62925;SDS011;55732;52.248;-0.844;2023-03-09T09:23:15;4.90;;;3.70;;
62925;SDS011;55732;52.248;-0.844;2023-03-09T09:25:40;7.30;;;4.10;;
62925;SDS011;55732;52.248;-0.844;2023-03-09T09:28:06;6.80;;;3.90;;
62925;SDS011;55732;52.248;-0.844;2023-03-09T09:30:32;5.90;;;4.00;;
62925;SDS011;55732;52.248;-0.844;2023-03-09T09:32:58;4.90;;;3.60;;
62925;SDS011;55732;52.248;-0.844;2023-03-09T09:35:25;5.20;;;3.40;;
62925;SDS011;55732;52.248;-0.844;2023-03-09T09:37:51;6.40;;;4.20;;
62925;SDS011;55732;52.248;-0.844;2023-03-09T09:40:19;5.10;;;3.90;;
62925;SDS011;55732;52.248;-0.844;2023-03-09T09:42:45;3.40;;;2.40;;
62925;SDS011;55732;52.248;-0.844;2023-03-09T09:45:22;15.30;;;5.30;;
62925;SDS011;55732;52.248;-0.844;2023-03-09T09:47:52;4.00;;;3.40;;
62925;SDS011;55732;52.248;-0.844;2023-03-09T09:50:19;6.70;;;4.50;;
62925;SDS011;55732;52.248;-0.844;2023-03-09T09:53:06;6.20;;;3.80;;
62925;SDS011;55732;52.248;-0.844;2023-03-09T09:55:52;5.10;;;3.80;;
62925;SDS011;55732;52.248;-0.844;2023-03-09T10:00:58;5.00;;;4.20;;
62925;SDS011;55732;52.248;-0.844;2023-03-09T10:03:33;5.10;;;4.20;;
62925;SDS011;55732;52.248;-0.844;2023-03-09T10:06:17;3.70;;;3.10;;
62925;SDS011;55732;52.248;-0.844;2023-03-09T10:08:58;4.50;;;3.50;;
62925;SDS011;55732;52.248;-0.844;2023-03-09T10:11:38;4.40;;;3.60;;
62925;SDS011;55732;52.248;-0.844;2023-03-09T10:17:14;5.40;;;4.40;;
62925;SDS011;55732;52.248;-0.844;2023-03-09T10:19:46;7.30;;;4.30;;
62925;SDS011;55732;52.248;-0.844;2023-03-09T10:24:46;3.80;;;3.30;;
62925;SDS011;55732;52.248;-0.844;2023-03-09T10:38:02;3.70;;;3.20;;
62925;SDS011;55732;52.248;-0.844;2023-03-09T10:40:29;7.50;;;4.60;;
62925;SDS011;55732;52.248;-0.844;2023-03-09T10:43:07;7.70;;;3.80;;
62925;SDS011;55732;52.248;-0.844;2023-03-09T10:45:43;7.60;;;4.70;;
62925;SDS011;55732;52.248;-0.844;2023-03-09T10:48:08;5.90;;;3.30;;
62925;SDS011;55732;52.248;-0.844;2023-03-09T10:50:59;5.40;;;4.00;;
62925;SDS011;55732;52.248;-0.844;2023-03-09T10:58:22;4.50;;;3.70;;
62925;SDS011;55732;52.248;-0.844;2023-03-09T11:03:20;5.80;;;4.30;;
62925;SDS011;55732;52.248;-0.844;2023-03-09T11:05:47;4.10;;;3.10;;
62925;SDS011;55732;52.248;-0.844;2023-03-09T11:08:23;3.10;;;2.70;;
62925;SDS011;55732;52.248;-0.844;2023-03-09T11:11:15;5.00;;;3.70;;
62925;SDS011;55732;52.248;-0.844;2023-03-09T11:13:45;5.70;;;4.20;;
62925;SDS011;55732;52.248;-0.844;2023-03-09T11:16:19;4.90;;;3.90;;
62925;SDS011;55732;52.248;-0.844;2023-03-09T11:18:47;4.70;;;3.40;;
62925;SDS011;55732;52.248;-0.844;2023-03-09T11:21:22;3.50;;;3.00;;
62925;SDS011;55732;52.248;-0.844;2023-03-09T11:23:48;4.40;;;3.70;;
62925;SDS011;55732;52.248;-0.844;2023-03-09T11:31:21;3.30;;;2.80;;
62925;SDS011;55732;52.248;-0.844;2023-03-09T11:33:49;2.60;;;2.40;;
62925;SDS011;55732;52.248;-0.844;2023-03-09T11:36:22;3.30;;;2.80;;
62925;SDS011;55732;52.248;-0.844;2023-03-09T11:38:53;4.10;;;3.10;;
62925;SDS011;55732;52.248;-0.844;2023-03-09T11:41:27;3.10;;;2.60;;
62925;SDS011;55732;52.248;-0.844;2023-03-09T11:44:03;3.30;;;2.50;;
62925;SDS011;55732;52.248;-0.844;2023-03-09T11:46:37;3.40;;;2.60;;
62925;SDS011;55732;52.248;-0.844;2023-03-09T11:49:13;3.10;;;2.50;;
62925;SDS011;55732;52.248;-0.844;2023-03-09T11:51:48;4.10;;;2.90;;
62925;SDS011;55732;52.248;-0.844;2023-03-09T11:57:02;3.60;;;2.90;;
62925;SDS011;55732;52.248;-0.844;2023-03-09T11:59:37;5.70;;;3.20;;
62925;SDS011;55732;52.248;-0.844;2023-03-09T12:04:49;4.60;;;3.20;;
62925;SDS011;55732;52.248;-0.844;2023-03-09T12:07:20;4.50;;;2.60;;
62925;SDS011;55732;52.248;-0.844;2023-03-09T12:15:31;5.10;;;3.20;;
62925;SDS011;55732;52.248;-0.844;2023-03-09T12:18:07;4.70;;;3.10;;
62925;SDS011;55732;52.248;-0.844;2023-03-09T12:20:50;5.90;;;2.70;;
62925;SDS011;55732;52.248;-0.844;2023-03-09T12:28:59;2.80;;;2.40;;
62925;SDS011;55732;52.248;-0.844;2023-03-09T12:31:30;2.90;;;2.40;;
62925;SDS011;55732;52.248;-0.844;2023-03-09T12:36:27;4.50;;;3.20;;
62925;SDS011;55732;52.248;-0.844;2023-03-09T12:41:55;4.20;;;3.20;;
62925;SDS011;55732;52.248;-0.844;2023-03-09T13:00:55;3.40;;;2.90;;
62925;SDS011;55732;52.248;-0.844;2023-03-09T13:03:22;3.30;;;2.60;;
62925;SDS011;55732;52.248;-0.844;2023-03-09T13:05:48;4.40;;;2.90;;
62925;SDS011;55732;52.248;-0.844;2023-03-09T13:10:50;3.30;;;2.80;;
62925;SDS011;55732;52.248;-0.844;2023-03-09T13:32:21;6.40;;;4.00;;
62925;SDS011;55732;52.248;-0.844;2023-03-09T13:34:48;4.00;;;3.30;;
62925;SDS011;55732;52.248;-0.844;2023-03-09T13:37:18;3.70;;;3.30;;
62925;SDS011;55732;52.248;-0.844;2023-03-09T13:39:57;4.20;;;3.40;;
62925;SDS011;55732;52.248;-0.844;2023-03-09T13:42:24;3.90;;;3.30;;
62925;SDS011;55732;52.248;-0.844;2023-03-09T13:44:50;4.20;;;3.70;;
62925;SDS011;55732;52.248;-0.844;2023-03-09T13:47:28;3.70;;;2.90;;
62925;SDS011;55732;52.248;-0.844;2023-03-09T13:49:58;5.00;;;3.60;;
62925;SDS011;55732;52.248;-0.844;2023-03-09T13:52:25;4.30;;;3.40;;
62925;SDS011;55732;52.248;-0.844;2023-03-09T13:57:23;6.30;;;2.90;;
62925;SDS011;55732;52.248;-0.844;2023-03-09T14:02:20;2.90;;;2.40;;
62925;SDS011;55732;52.248;-0.844;2023-03-09T14:05:00;2.80;;;2.40;;
62925;SDS011;55732;52.248;-0.844;2023-03-09T14:07:33;2.20;;;2.00;;
62925;SDS011;55732;52.248;-0.844;2023-03-09T14:10:03;7.30;;;3.50;;
62925;SDS011;55732;52.248;-0.844;2023-03-09T14:12:35;4.60;;;2.40;;
62925;SDS011;55732;52.248;-0.844;2023-03-09T14:15:04;3.80;;;2.50;;
62925;SDS011;55732;52.248;-0.844;2023-03-09T14:17:32;2.90;;;2.30;;
62925;SDS011;55732;52.248;-0.844;2023-03-09T14:20:00;3.70;;;2.90;;
62925;SDS011;55732;52.248;-0.844;2023-03-09T14:22:28;3.00;;;2.20;;
62925;SDS011;55732;52.248;-0.844;2023-03-09T14:24:56;3.50;;;2.60;;
62925;SDS011;55732;52.248;-0.844;2023-03-09T14:27:24;3.60;;;2.70;;
62925;SDS011;55732;52.248;-0.844;2023-03-09T14:29:58;2.80;;;2.50;;
62925;SDS011;55732;52.248;-0.844;2023-03-09T14:32:58;2.80;;;2.00;;
62925;SDS011;55732;52.248;-0.844;2023-03-09T14:35:30;4.30;;;2.90;;
62925;SDS011;55732;52.248;-0.844;2023-03-09T14:37:57;2.60;;;2.40;;
62925;SDS011;55732;52.248;-0.844;2023-03-09T14:40:26;2.80;;;2.10;;
62925;SDS011;55732;52.248;-0.844;2023-03-09T14:45:45;2.30;;;2.10;;
62925;SDS011;55732;52.248;-0.844;2023-03-09T14:48:11;2.50;;;2.30;;
62925;SDS011;55732;52.248;-0.844;2023-03-09T14:50:37;2.10;;;1.90;;
62925;SDS011;55732;52.248;-0.844;2023-03-09T14:53:04;2.50;;;2.30;;
62925;SDS011;55732;52.248;-0.844;2023-03-09T14:55:29;3.30;;;2.60;;
62925;SDS011;55732;52.248;-0.844;2023-03-09T14:57:56;3.20;;;2.60;;
62925;SDS011;55732;52.248;-0.844;2023-03-09T15:00:23;3.00;;;2.20;;
62925;SDS011;55732;52.248;-0.844;2023-03-09T15:02:50;3.40;;;2.40;;
62925;SDS011;55732;52.248;-0.844;2023-03-09T15:05:18;2.30;;;2.10;;
62925;SDS011;55732;52.248;-0.844;2023-03-09T15:07:46;3.00;;;2.20;;
62925;SDS011;55732;52.248;-0.844;2023-03-09T15:10:13;3.70;;;2.30;;
62925;SDS011;55732;52.248;-0.844;2023-03-09T15:12:39;2.70;;;2.40;;
62925;SDS011;55732;52.248;-0.844;2023-03-09T15:15:13;3.20;;;2.40;;
62925;SDS011;55732;52.248;-0.844;2023-03-09T15:17:41;3.30;;;2.30;;
62925;SDS011;55732;52.248;-0.844;2023-03-09T15:20:11;2.30;;;2.00;;
62925;SDS011;55732;52.248;-0.844;2023-03-09T15:22:38;3.10;;;2.70;;
62925;SDS011;55732;52.248;-0.844;2023-03-09T15:25:03;2.80;;;2.50;;
62925;SDS011;55732;52.248;-0.844;2023-03-09T15:27:29;3.30;;;2.60;;
62925;SDS011;55732;52.248;-0.844;2023-03-09T15:29:54;2.50;;;2.30;;
62925;SDS011;55732;52.248;-0.844;2023-03-09T15:32:20;2.40;;;2.20;;
62925;SDS011;55732;52.248;-0.844;2023-03-09T15:34:45;3.50;;;2.80;;
62925;SDS011;55732;52.248;-0.844;2023-03-09T15:37:10;3.00;;;2.50;;
62925;SDS011;55732;52.248;-0.844;2023-03-09T15:39:36;3.00;;;2.60;;
62925;SDS011;55732;52.248;-0.844;2023-03-09T15:42:01;3.00;;;2.50;;
62925;SDS011;55732;52.248;-0.844;2023-03-09T15:44:27;3.50;;;2.70;;
62925;SDS011;55732;52.248;-0.844;2023-03-09T15:46:53;2.90;;;2.30;;
62925;SDS011;55732;52.248;-0.844;2023-03-09T15:49:19;3.70;;;3.10;;
62925;SDS011;55732;52.248;-0.844;2023-03-09T15:51:45;3.20;;;2.70;;
62925;SDS011;55732;52.248;-0.844;2023-03-09T15:54:11;2.80;;;2.30;;
62925;SDS011;55732;52.248;-0.844;2023-03-09T15:56:36;2.70;;;2.30;;
62925;SDS011;55732;52.248;-0.844;2023-03-09T15:59:02;6.40;;;3.70;;
62925;SDS011;55732;52.248;-0.844;2023-03-09T16:01:29;9.40;;;4.40;;
62925;SDS011;55732;52.248;-0.844;2023-03-09T16:03:54;4.30;;;2.90;;
62925;SDS011;55732;52.248;-0.844;2023-03-09T16:06:20;3.40;;;2.70;;
62925;SDS011;55732;52.248;-0.844;2023-03-09T16:08:47;5.70;;;3.40;;
62925;SDS011;55732;52.248;-0.844;2023-03-09T16:11:13;3.90;;;3.20;;
62925;SDS011;55732;52.248;-0.844;2023-03-09T16:13:39;4.60;;;3.50;;
62925;SDS011;55732;52.248;-0.844;2023-03-09T16:18:33;4.10;;;3.30;;
62925;SDS011;55732;52.248;-0.844;2023-03-09T16:20:59;3.00;;;2.70;;
62925;SDS011;55732;52.248;-0.844;2023-03-09T16:23:26;2.90;;;2.70;;